sensor_id;sensor_type;location;lat;lon;timestamp;P1;durP1;ratioP1;P2;durP2;ratioP2
45944;SDS011;31655;48.972;10.686;2022-12-18T00:01:03;156.07;;;49.22;;
45944;SDS011;31655;48.972;10.686;2022-12-18T00:03:33;158.40;;;54.92;;
45944;SDS011;31655;48.972;10.686;2022-12-18T00:05:59;175.35;;;54.72;;
45944;SDS011;31655;48.972;10.686;2022-12-18T00:08:25;162.68;;;57.25;;
45944;SDS011;31655;48.972;10.686;2022-12-18T00:10:51;169.70;;;60.33;;
45944;SDS011;31655;48.972;10.686;2022-12-18T00:13:17;169.38;;;57.03;;
45944;SDS011;31655;48.972;10.686;2022-12-18T00:15:44;181.10;;;61.95;;
45944;SDS011;31655;48.972;10.686;2022-12-18T00:18:10;167.15;;;55.75;;
45944;SDS011;31655;48.972;10.686;2022-12-18T00:20:36;177.35;;;56.88;;
45944;SDS011;31655;48.972;10.686;2022-12-18T00:23:03;143.88;;;52.80;;
45944;SDS011;31655;48.972;10.686;2022-12-18T00:25:30;124.78;;;45.10;;
45944;SDS011;31655;48.972;10.686;2022-12-18T00:27:57;155.70;;;49.05;;
45944;SDS011;31655;48.972;10.686;2022-12-18T00:30:23;126.30;;;45.38;;
45944;SDS011;31655;48.972;10.686;2022-12-18T00:32:50;146.30;;;48.45;;
45944;SDS011;31655;48.972;10.686;2022-12-18T00:35:16;146.52;;;47.45;;
45944;SDS011;31655;48.972;10.686;2022-12-18T00:37:42;140.27;;;48.58;;
45944;SDS011;31655;48.972;10.686;2022-12-18T00:40:08;134.77;;;51.38;;
45944;SDS011;31655;48.972;10.686;2022-12-18T00:42:37;138.52;;;48.65;;
45944;SDS011;31655;48.972;10.686;2022-12-18T00:45:26;143.98;;;48.05;;
45944;SDS011;31655;48.972;10.686;2022-12-18T00:47:52;132.15;;;46.67;;
45944;SDS011;31655;48.972;10.686;2022-12-18T00:58:05;130.05;;;48.75;;
45944;SDS011;31655;48.972;10.686;2022-12-18T01:00:31;137.48;;;45.97;;
45944;SDS011;31655;48.972;10.686;2022-12-18T01:02:57;141.48;;;54.50;;
45944;SDS011;31655;48.972;10.686;2022-12-18T01:05:24;130.52;;;46.83;;
45944;SDS011;31655;48.972;10.686;2022-12-18T01:07:52;127.00;;;46.75;;
45944;SDS011;31655;48.972;10.686;2022-12-18T01:10:18;136.00;;;47.08;;
45944;SDS011;31655;48.972;10.686;2022-12-18T01:12:45;143.90;;;46.45;;
45944;SDS011;31655;48.972;10.686;2022-12-18T01:15:11;136.15;;;47.47;;
45944;SDS011;31655;48.972;10.686;2022-12-18T01:17:38;121.95;;;45.65;;
45944;SDS011;31655;48.972;10.686;2022-12-18T01:20:10;128.30;;;42.70;;
45944;SDS011;31655;48.972;10.686;2022-12-18T01:22:36;143.63;;;44.95;;
45944;SDS011;31655;48.972;10.686;2022-12-18T01:25:03;129.00;;;42.03;;
45944;SDS011;31655;48.972;10.686;2022-12-18T01:48:14;118.28;;;42.38;;
45944;SDS011;31655;48.972;10.686;2022-12-18T01:50:40;107.53;;;38.63;;
45944;SDS011;31655;48.972;10.686;2022-12-18T01:53:10;112.57;;;38.10;;
45944;SDS011;31655;48.972;10.686;2022-12-18T01:55:38;110.97;;;37.92;;
45944;SDS011;31655;48.972;10.686;2022-12-18T01:58:06;108.35;;;38.95;;
45944;SDS011;31655;48.972;10.686;2022-12-18T02:00:32;85.78;;;33.17;;
45944;SDS011;31655;48.972;10.686;2022-12-18T02:02:58;101.57;;;36.15;;
45944;SDS011;31655;48.972;10.686;2022-12-18T02:05:36;101.10;;;37.78;;
45944;SDS011;31655;48.972;10.686;2022-12-18T02:08:24;93.78;;;36.28;;
45944;SDS011;31655;48.972;10.686;2022-12-18T02:46:44;111.88;;;35.85;;
45944;SDS011;31655;48.972;10.686;2022-12-18T03:02:21;89.03;;;30.95;;
45944;SDS011;31655;48.972;10.686;2022-12-18T03:04:58;95.93;;;30.90;;
45944;SDS011;31655;48.972;10.686;2022-12-18T03:07:37;90.03;;;29.17;;
45944;SDS011;31655;48.972;10.686;2022-12-18T03:10:04;99.30;;;34.33;;
45944;SDS011;31655;48.972;10.686;2022-12-18T03:12:34;92.55;;;31.58;;
45944;SDS011;31655;48.972;10.686;2022-12-18T03:15:08;95.82;;;32.28;;
45944;SDS011;31655;48.972;10.686;2022-12-18T03:17:35;89.20;;;33.60;;
45944;SDS011;31655;48.972;10.686;2022-12-18T03:20:06;104.10;;;34.95;;
45944;SDS011;31655;48.972;10.686;2022-12-18T03:22:33;96.97;;;28.80;;
45944;SDS011;31655;48.972;10.686;2022-12-18T03:25:03;92.05;;;33.13;;
45944;SDS011;31655;48.972;10.686;2022-12-18T03:27:32;105.70;;;31.98;;
45944;SDS011;31655;48.972;10.686;2022-12-18T03:32:32;99.05;;;31.98;;
45944;SDS011;31655;48.972;10.686;2022-12-18T03:35:00;104.15;;;33.20;;
45944;SDS011;31655;48.972;10.686;2022-12-18T03:37:34;96.70;;;35.22;;
45944;SDS011;31655;48.972;10.686;2022-12-18T03:40:00;99.78;;;33.60;;
45944;SDS011;31655;48.972;10.686;2022-12-18T03:42:32;103.95;;;31.75;;
45944;SDS011;31655;48.972;10.686;2022-12-18T03:50:07;101.90;;;32.05;;
45944;SDS011;31655;48.972;10.686;2022-12-18T03:52:38;98.38;;;32.58;;
45944;SDS011;31655;48.972;10.686;2022-12-18T03:55:07;109.07;;;33.40;;
45944;SDS011;31655;48.972;10.686;2022-12-18T03:57:34;91.75;;;32.00;;
45944;SDS011;31655;48.972;10.686;2022-12-18T04:00:03;108.25;;;34.70;;
45944;SDS011;31655;48.972;10.686;2022-12-18T04:02:30;113.93;;;30.75;;
45944;SDS011;31655;48.972;10.686;2022-12-18T04:04:58;97.45;;;31.48;;
45944;SDS011;31655;48.972;10.686;2022-12-18T04:07:25;94.22;;;30.33;;
45944;SDS011;31655;48.972;10.686;2022-12-18T04:09:52;107.25;;;34.28;;
45944;SDS011;31655;48.972;10.686;2022-12-18T04:12:19;106.32;;;32.75;;
45944;SDS011;31655;48.972;10.686;2022-12-18T04:14:45;93.93;;;30.52;;
45944;SDS011;31655;48.972;10.686;2022-12-18T04:17:12;97.82;;;30.60;;
45944;SDS011;31655;48.972;10.686;2022-12-18T04:19:38;95.65;;;33.15;;
45944;SDS011;31655;48.972;10.686;2022-12-18T04:22:04;110.50;;;35.17;;
45944;SDS011;31655;48.972;10.686;2022-12-18T04:24:32;107.57;;;29.38;;
45944;SDS011;31655;48.972;10.686;2022-12-18T04:26:58;94.47;;;28.77;;
45944;SDS011;31655;48.972;10.686;2022-12-18T04:29:24;113.70;;;38.20;;
45944;SDS011;31655;48.972;10.686;2022-12-18T04:31:50;120.43;;;32.92;;
45944;SDS011;31655;48.972;10.686;2022-12-18T04:34:16;116.18;;;33.90;;
45944;SDS011;31655;48.972;10.686;2022-12-18T04:36:43;123.35;;;34.85;;
45944;SDS011;31655;48.972;10.686;2022-12-18T04:39:09;103.45;;;30.45;;
45944;SDS011;31655;48.972;10.686;2022-12-18T04:41:35;97.00;;;33.13;;
45944;SDS011;31655;48.972;10.686;2022-12-18T04:44:01;111.97;;;32.65;;
45944;SDS011;31655;48.972;10.686;2022-12-18T05:19:08;107.25;;;31.98;;
45944;SDS011;31655;48.972;10.686;2022-12-18T05:21:35;111.25;;;29.73;;
45944;SDS011;31655;48.972;10.686;2022-12-18T05:24:01;98.82;;;32.17;;
45944;SDS011;31655;48.972;10.686;2022-12-18T05:26:27;105.10;;;33.88;;
45944;SDS011;31655;48.972;10.686;2022-12-18T05:28:53;110.30;;;32.50;;
45944;SDS011;31655;48.972;10.686;2022-12-18T05:31:22;119.85;;;34.65;;
45944;SDS011;31655;48.972;10.686;2022-12-18T05:33:48;109.40;;;33.25;;
45944;SDS011;31655;48.972;10.686;2022-12-18T05:36:14;119.75;;;33.28;;
45944;SDS011;31655;48.972;10.686;2022-12-18T05:38:41;110.00;;;32.50;;
45944;SDS011;31655;48.972;10.686;2022-12-18T05:41:07;105.35;;;33.03;;
45944;SDS011;31655;48.972;10.686;2022-12-18T05:43:37;100.35;;;31.05;;
45944;SDS011;31655;48.972;10.686;2022-12-18T05:46:08;106.32;;;29.58;;
45944;SDS011;31655;48.972;10.686;2022-12-18T05:48:34;108.82;;;31.90;;
45944;SDS011;31655;48.972;10.686;2022-12-18T05:51:05;101.05;;;31.73;;
45944;SDS011;31655;48.972;10.686;2022-12-18T05:53:32;102.88;;;30.23;;
45944;SDS011;31655;48.972;10.686;2022-12-18T06:06:55;103.10;;;27.55;;
45944;SDS011;31655;48.972;10.686;2022-12-18T06:09:21;94.90;;;29.00;;
45944;SDS011;31655;48.972;10.686;2022-12-18T06:11:48;97.13;;;27.05;;
45944;SDS011;31655;48.972;10.686;2022-12-18T06:14:14;95.20;;;29.17;;
45944;SDS011;31655;48.972;10.686;2022-12-18T06:16:42;93.90;;;29.95;;
45944;SDS011;31655;48.972;10.686;2022-12-18T06:19:12;99.40;;;29.55;;
45944;SDS011;31655;48.972;10.686;2022-12-18T06:21:40;92.68;;;28.52;;
45944;SDS011;31655;48.972;10.686;2022-12-18T06:24:09;81.30;;;24.40;;
45944;SDS011;31655;48.972;10.686;2022-12-18T06:26:38;81.80;;;25.50;;
45944;SDS011;31655;48.972;10.686;2022-12-18T06:32:06;85.18;;;24.42;;
45944;SDS011;31655;48.972;10.686;2022-12-18T06:34:51;89.05;;;27.00;;
45944;SDS011;31655;48.972;10.686;2022-12-18T06:37:38;90.68;;;27.15;;
45944;SDS011;31655;48.972;10.686;2022-12-18T06:40:09;81.63;;;28.50;;
45944;SDS011;31655;48.972;10.686;2022-12-18T06:42:35;106.07;;;29.30;;
45944;SDS011;31655;48.972;10.686;2022-12-18T06:45:04;83.85;;;28.30;;
45944;SDS011;31655;48.972;10.686;2022-12-18T06:47:31;91.35;;;27.00;;
45944;SDS011;31655;48.972;10.686;2022-12-18T06:49:57;81.18;;;28.38;;
45944;SDS011;31655;48.972;10.686;2022-12-18T06:52:25;78.90;;;25.30;;
45944;SDS011;31655;48.972;10.686;2022-12-18T06:54:53;85.40;;;23.35;;
45944;SDS011;31655;48.972;10.686;2022-12-18T06:57:19;94.50;;;27.13;;
45944;SDS011;31655;48.972;10.686;2022-12-18T06:59:47;96.32;;;29.45;;
45944;SDS011;31655;48.972;10.686;2022-12-18T07:02:39;86.65;;;26.30;;
45944;SDS011;31655;48.972;10.686;2022-12-18T07:05:07;90.35;;;25.30;;
45944;SDS011;31655;48.972;10.686;2022-12-18T07:07:53;93.32;;;26.88;;
45944;SDS011;31655;48.972;10.686;2022-12-18T07:10:21;81.47;;;26.20;;
45944;SDS011;31655;48.972;10.686;2022-12-18T07:13:10;88.03;;;26.20;;
45944;SDS011;31655;48.972;10.686;2022-12-18T07:16:02;100.18;;;29.45;;
45944;SDS011;31655;48.972;10.686;2022-12-18T07:18:28;91.07;;;26.33;;
45944;SDS011;31655;48.972;10.686;2022-12-18T07:20:55;86.95;;;30.52;;
45944;SDS011;31655;48.972;10.686;2022-12-18T07:23:21;101.90;;;28.90;;
45944;SDS011;31655;48.972;10.686;2022-12-18T07:25:47;83.80;;;25.55;;
45944;SDS011;31655;48.972;10.686;2022-12-18T07:28:14;87.88;;;27.63;;
45944;SDS011;31655;48.972;10.686;2022-12-18T07:30:40;100.78;;;27.90;;
45944;SDS011;31655;48.972;10.686;2022-12-18T07:33:06;92.75;;;29.13;;
45944;SDS011;31655;48.972;10.686;2022-12-18T07:35:32;91.78;;;25.52;;
45944;SDS011;31655;48.972;10.686;2022-12-18T07:38:01;99.65;;;28.23;;
45944;SDS011;31655;48.972;10.686;2022-12-18T07:40:27;93.40;;;26.90;;
45944;SDS011;31655;48.972;10.686;2022-12-18T07:42:53;92.03;;;25.08;;
45944;SDS011;31655;48.972;10.686;2022-12-18T07:45:19;95.35;;;29.65;;
45944;SDS011;31655;48.972;10.686;2022-12-18T07:47:45;76.95;;;27.80;;
45944;SDS011;31655;48.972;10.686;2022-12-18T07:50:12;83.13;;;28.35;;
45944;SDS011;31655;48.972;10.686;2022-12-18T07:52:38;96.30;;;30.33;;
45944;SDS011;31655;48.972;10.686;2022-12-18T07:55:04;80.05;;;24.45;;
45944;SDS011;31655;48.972;10.686;2022-12-18T07:57:31;87.82;;;33.22;;
45944;SDS011;31655;48.972;10.686;2022-12-18T07:59:57;76.82;;;25.30;;
45944;SDS011;31655;48.972;10.686;2022-12-18T08:02:23;81.43;;;27.13;;
45944;SDS011;31655;48.972;10.686;2022-12-18T08:04:49;78.45;;;26.05;;
45944;SDS011;31655;48.972;10.686;2022-12-18T08:07:15;91.13;;;28.08;;
45944;SDS011;31655;48.972;10.686;2022-12-18T08:09:41;81.43;;;25.65;;
45944;SDS011;31655;48.972;10.686;2022-12-18T08:12:07;77.20;;;24.30;;
45944;SDS011;31655;48.972;10.686;2022-12-18T08:14:33;81.05;;;26.38;;
45944;SDS011;31655;48.972;10.686;2022-12-18T08:17:19;77.43;;;26.73;;
45944;SDS011;31655;48.972;10.686;2022-12-18T08:20:28;90.13;;;27.92;;
45944;SDS011;31655;48.972;10.686;2022-12-18T08:23:22;95.45;;;30.77;;
45944;SDS011;31655;48.972;10.686;2022-12-18T08:26:22;99.35;;;32.42;;
45944;SDS011;31655;48.972;10.686;2022-12-18T09:00:44;63.55;;;23.55;;
45944;SDS011;31655;48.972;10.686;2022-12-18T09:03:15;74.43;;;23.20;;
45944;SDS011;31655;48.972;10.686;2022-12-18T09:05:41;75.97;;;26.90;;
45944;SDS011;31655;48.972;10.686;2022-12-18T09:08:12;64.75;;;22.30;;
45944;SDS011;31655;48.972;10.686;2022-12-18T09:10:44;61.40;;;23.90;;
45944;SDS011;31655;48.972;10.686;2022-12-18T09:13:15;72.25;;;29.23;;
45944;SDS011;31655;48.972;10.686;2022-12-18T09:15:47;73.63;;;26.08;;
45944;SDS011;31655;48.972;10.686;2022-12-18T09:18:21;65.78;;;26.27;;
45944;SDS011;31655;48.972;10.686;2022-12-18T09:20:56;76.97;;;25.73;;
45944;SDS011;31655;48.972;10.686;2022-12-18T09:23:22;66.28;;;23.08;;
45944;SDS011;31655;48.972;10.686;2022-12-18T09:28:27;91.05;;;28.35;;
45944;SDS011;31655;48.972;10.686;2022-12-18T09:30:53;72.97;;;25.85;;
45944;SDS011;31655;48.972;10.686;2022-12-18T09:33:19;75.70;;;24.00;;
45944;SDS011;31655;48.972;10.686;2022-12-18T09:35:47;61.63;;;24.05;;
45944;SDS011;31655;48.972;10.686;2022-12-18T09:38:14;75.78;;;25.77;;
45944;SDS011;31655;48.972;10.686;2022-12-18T09:40:45;62.40;;;21.13;;
45944;SDS011;31655;48.972;10.686;2022-12-18T09:45:59;67.18;;;23.80;;
45944;SDS011;31655;48.972;10.686;2022-12-18T09:49:00;56.05;;;21.92;;
45944;SDS011;31655;48.972;10.686;2022-12-18T09:51:20;54.88;;;20.17;;
45944;SDS011;31655;48.972;10.686;2022-12-18T09:53:59;56.80;;;23.88;;
45944;SDS011;31655;48.972;10.686;2022-12-18T09:56:28;61.08;;;24.40;;
45944;SDS011;31655;48.972;10.686;2022-12-18T10:01:23;61.53;;;24.20;;
45944;SDS011;31655;48.972;10.686;2022-12-18T10:03:50;74.63;;;28.85;;
45944;SDS011;31655;48.972;10.686;2022-12-18T10:06:31;56.53;;;23.92;;
45944;SDS011;31655;48.972;10.686;2022-12-18T10:19:26;66.57;;;27.52;;
45944;SDS011;31655;48.972;10.686;2022-12-18T10:22:00;63.85;;;22.45;;
45944;SDS011;31655;48.972;10.686;2022-12-18T10:26:56;55.88;;;20.98;;
45944;SDS011;31655;48.972;10.686;2022-12-18T10:29:25;55.13;;;20.60;;
45944;SDS011;31655;48.972;10.686;2022-12-18T10:31:51;52.40;;;20.23;;
45944;SDS011;31655;48.972;10.686;2022-12-18T10:34:17;57.58;;;22.27;;
45944;SDS011;31655;48.972;10.686;2022-12-18T10:36:43;61.55;;;20.48;;
45944;SDS011;31655;48.972;10.686;2022-12-18T10:41:41;51.92;;;21.02;;
45944;SDS011;31655;48.972;10.686;2022-12-18T10:44:23;64.85;;;25.08;;
45944;SDS011;31655;48.972;10.686;2022-12-18T10:47:02;56.08;;;22.90;;
45944;SDS011;31655;48.972;10.686;2022-12-18T10:49:29;56.72;;;21.40;;
45944;SDS011;31655;48.972;10.686;2022-12-18T10:54:49;58.65;;;23.15;;
45944;SDS011;31655;48.972;10.686;2022-12-18T10:57:16;68.72;;;27.67;;
45944;SDS011;31655;48.972;10.686;2022-12-18T10:59:52;56.03;;;20.85;;
45944;SDS011;31655;48.972;10.686;2022-12-18T11:02:37;57.25;;;22.00;;
45944;SDS011;31655;48.972;10.686;2022-12-18T11:05:22;58.13;;;23.75;;
45944;SDS011;31655;48.972;10.686;2022-12-18T11:10:22;52.45;;;19.52;;
45944;SDS011;31655;48.972;10.686;2022-12-18T11:12:49;55.85;;;21.00;;
45944;SDS011;31655;48.972;10.686;2022-12-18T11:15:20;49.50;;;20.08;;
45944;SDS011;31655;48.972;10.686;2022-12-18T11:17:52;54.15;;;20.00;;
45944;SDS011;31655;48.972;10.686;2022-12-18T11:20:31;46.85;;;20.23;;
45944;SDS011;31655;48.972;10.686;2022-12-18T11:23:04;44.28;;;18.67;;
45944;SDS011;31655;48.972;10.686;2022-12-18T11:25:31;49.28;;;20.70;;
45944;SDS011;31655;48.972;10.686;2022-12-18T11:28:02;51.45;;;20.75;;
45944;SDS011;31655;48.972;10.686;2022-12-18T11:30:34;48.20;;;17.80;;
45944;SDS011;31655;48.972;10.686;2022-12-18T11:37:57;50.83;;;19.83;;
45944;SDS011;31655;48.972;10.686;2022-12-18T11:40:36;53.08;;;21.33;;
45944;SDS011;31655;48.972;10.686;2022-12-18T11:43:07;51.40;;;19.00;;
45944;SDS011;31655;48.972;10.686;2022-12-18T11:45:34;51.95;;;22.42;;
45944;SDS011;31655;48.972;10.686;2022-12-18T11:51:03;49.95;;;22.27;;
45944;SDS011;31655;48.972;10.686;2022-12-18T11:53:35;51.28;;;20.42;;
45944;SDS011;31655;48.972;10.686;2022-12-18T12:01:03;55.80;;;21.42;;
45944;SDS011;31655;48.972;10.686;2022-12-18T12:03:39;50.40;;;19.30;;
45944;SDS011;31655;48.972;10.686;2022-12-18T12:09:01;58.78;;;23.38;;
45944;SDS011;31655;48.972;10.686;2022-12-18T12:19:46;53.65;;;21.00;;
45944;SDS011;31655;48.972;10.686;2022-12-18T12:22:18;45.65;;;19.55;;
45944;SDS011;31655;48.972;10.686;2022-12-18T12:30:05;43.92;;;19.83;;
45944;SDS011;31655;48.972;10.686;2022-12-18T12:40:11;51.88;;;21.42;;
45944;SDS011;31655;48.972;10.686;2022-12-18T12:42:42;49.40;;;20.33;;
45944;SDS011;31655;48.972;10.686;2022-12-18T12:45:39;57.08;;;22.90;;
45944;SDS011;31655;48.972;10.686;2022-12-18T12:48:11;59.72;;;23.35;;
45944;SDS011;31655;48.972;10.686;2022-12-18T12:50:41;58.53;;;22.30;;
45944;SDS011;31655;48.972;10.686;2022-12-18T12:53:07;47.90;;;19.55;;
45944;SDS011;31655;48.972;10.686;2022-12-18T12:55:35;51.17;;;22.67;;
45944;SDS011;31655;48.972;10.686;2022-12-18T12:58:19;47.15;;;20.00;;
45944;SDS011;31655;48.972;10.686;2022-12-18T13:00:59;49.25;;;21.15;;
45944;SDS011;31655;48.972;10.686;2022-12-18T13:06:02;67.05;;;24.13;;
45944;SDS011;31655;48.972;10.686;2022-12-18T13:08:31;45.88;;;21.35;;
45944;SDS011;31655;48.972;10.686;2022-12-18T13:10:58;45.35;;;19.42;;
45944;SDS011;31655;48.972;10.686;2022-12-18T13:13:50;53.78;;;21.33;;
45944;SDS011;31655;48.972;10.686;2022-12-18T13:16:21;49.55;;;20.77;;
45944;SDS011;31655;48.972;10.686;2022-12-18T13:18:54;53.95;;;20.30;;
45944;SDS011;31655;48.972;10.686;2022-12-18T13:21:27;41.80;;;17.83;;
45944;SDS011;31655;48.972;10.686;2022-12-18T13:23:54;122.38;;;40.88;;
45944;SDS011;31655;48.972;10.686;2022-12-18T13:28:56;84.05;;;30.23;;
45944;SDS011;31655;48.972;10.686;2022-12-18T13:34:20;74.65;;;29.73;;
45944;SDS011;31655;48.972;10.686;2022-12-18T13:36:47;58.13;;;22.90;;
45944;SDS011;31655;48.972;10.686;2022-12-18T13:41:42;46.50;;;21.10;;
45944;SDS011;31655;48.972;10.686;2022-12-18T13:44:24;49.83;;;19.45;;
45944;SDS011;31655;48.972;10.686;2022-12-18T13:46:50;55.85;;;21.38;;
45944;SDS011;31655;48.972;10.686;2022-12-18T13:52:14;52.50;;;20.33;;
45944;SDS011;31655;48.972;10.686;2022-12-18T13:54:41;64.57;;;23.83;;
45944;SDS011;31655;48.972;10.686;2022-12-18T13:59:53;48.50;;;20.23;;
45944;SDS011;31655;48.972;10.686;2022-12-18T14:02:23;50.08;;;21.95;;
45944;SDS011;31655;48.972;10.686;2022-12-18T14:04:50;48.28;;;21.05;;
45944;SDS011;31655;48.972;10.686;2022-12-18T14:07:18;55.63;;;20.55;;
45944;SDS011;31655;48.972;10.686;2022-12-18T14:09:45;51.63;;;21.10;;
45944;SDS011;31655;48.972;10.686;2022-12-18T14:12:20;55.58;;;22.73;;
45944;SDS011;31655;48.972;10.686;2022-12-18T14:15:06;51.83;;;22.30;;
45944;SDS011;31655;48.972;10.686;2022-12-18T14:17:36;54.03;;;22.92;;
45944;SDS011;31655;48.972;10.686;2022-12-18T14:20:02;51.90;;;22.10;;
45944;SDS011;31655;48.972;10.686;2022-12-18T14:22:28;56.15;;;23.02;;
45944;SDS011;31655;48.972;10.686;2022-12-18T14:25:06;55.25;;;21.15;;
45944;SDS011;31655;48.972;10.686;2022-12-18T14:27:36;53.60;;;23.23;;
45944;SDS011;31655;48.972;10.686;2022-12-18T14:30:16;59.00;;;23.45;;
45944;SDS011;31655;48.972;10.686;2022-12-18T14:32:58;58.08;;;22.45;;
45944;SDS011;31655;48.972;10.686;2022-12-18T14:35:24;63.15;;;23.98;;
45944;SDS011;31655;48.972;10.686;2022-12-18T14:37:50;56.13;;;22.88;;
45944;SDS011;31655;48.972;10.686;2022-12-18T14:40:16;49.17;;;19.60;;
45944;SDS011;31655;48.972;10.686;2022-12-18T14:42:42;68.30;;;26.17;;
45944;SDS011;31655;48.972;10.686;2022-12-18T14:50:19;53.53;;;22.27;;
45944;SDS011;31655;48.972;10.686;2022-12-18T14:52:45;59.88;;;22.75;;
45944;SDS011;31655;48.972;10.686;2022-12-18T14:55:18;61.92;;;24.13;;
45944;SDS011;31655;48.972;10.686;2022-12-18T14:57:45;66.80;;;24.73;;
45944;SDS011;31655;48.972;10.686;2022-12-18T15:00:15;61.83;;;21.70;;
45944;SDS011;31655;48.972;10.686;2022-12-18T15:02:43;68.15;;;27.63;;
45944;SDS011;31655;48.972;10.686;2022-12-18T15:07:43;63.60;;;25.25;;
45944;SDS011;31655;48.972;10.686;2022-12-18T15:10:18;58.60;;;22.48;;
45944;SDS011;31655;48.972;10.686;2022-12-18T15:17:57;71.53;;;27.73;;
45944;SDS011;31655;48.972;10.686;2022-12-18T15:20:23;54.83;;;21.92;;
45944;SDS011;31655;48.972;10.686;2022-12-18T15:22:49;60.67;;;25.55;;
45944;SDS011;31655;48.972;10.686;2022-12-18T15:25:31;61.88;;;26.58;;
45944;SDS011;31655;48.972;10.686;2022-12-18T15:27:58;67.47;;;27.95;;
45944;SDS011;31655;48.972;10.686;2022-12-18T15:30:24;60.60;;;23.30;;
45944;SDS011;31655;48.972;10.686;2022-12-18T15:32:50;74.03;;;27.63;;
45944;SDS011;31655;48.972;10.686;2022-12-18T15:35:19;64.32;;;25.50;;
45944;SDS011;31655;48.972;10.686;2022-12-18T15:37:45;65.82;;;26.25;;
45944;SDS011;31655;48.972;10.686;2022-12-18T15:40:12;57.80;;;23.23;;
45944;SDS011;31655;48.972;10.686;2022-12-18T15:42:38;65.82;;;27.00;;
45944;SDS011;31655;48.972;10.686;2022-12-18T15:45:23;63.88;;;24.50;;
45944;SDS011;31655;48.972;10.686;2022-12-18T15:47:49;70.97;;;24.17;;
45944;SDS011;31655;48.972;10.686;2022-12-18T15:50:15;58.42;;;24.88;;
45944;SDS011;31655;48.972;10.686;2022-12-18T15:52:42;57.95;;;24.23;;
45944;SDS011;31655;48.972;10.686;2022-12-18T15:55:10;68.45;;;23.40;;
45944;SDS011;31655;48.972;10.686;2022-12-18T15:57:54;69.22;;;27.20;;
45944;SDS011;31655;48.972;10.686;2022-12-18T16:00:20;68.32;;;23.38;;
45944;SDS011;31655;48.972;10.686;2022-12-18T16:02:47;60.78;;;26.13;;
45944;SDS011;31655;48.972;10.686;2022-12-18T16:05:14;77.45;;;27.35;;
45944;SDS011;31655;48.972;10.686;2022-12-18T16:07:41;65.57;;;25.92;;
45944;SDS011;31655;48.972;10.686;2022-12-18T16:10:07;78.10;;;25.77;;
45944;SDS011;31655;48.972;10.686;2022-12-18T16:12:34;76.03;;;27.52;;
45944;SDS011;31655;48.972;10.686;2022-12-18T16:15:00;79.57;;;30.83;;
45944;SDS011;31655;48.972;10.686;2022-12-18T16:17:26;74.72;;;28.63;;
45944;SDS011;31655;48.972;10.686;2022-12-18T16:19:52;69.97;;;26.85;;
45944;SDS011;31655;48.972;10.686;2022-12-18T16:22:21;74.25;;;26.88;;
45944;SDS011;31655;48.972;10.686;2022-12-18T16:24:49;82.68;;;29.30;;
45944;SDS011;31655;48.972;10.686;2022-12-18T16:27:16;80.20;;;29.92;;
45944;SDS011;31655;48.972;10.686;2022-12-18T16:29:42;75.00;;;29.48;;
45944;SDS011;31655;48.972;10.686;2022-12-18T16:32:08;86.70;;;30.23;;
45944;SDS011;31655;48.972;10.686;2022-12-18T16:34:41;70.75;;;27.00;;
45944;SDS011;31655;48.972;10.686;2022-12-18T16:37:08;76.97;;;29.33;;
45944;SDS011;31655;48.972;10.686;2022-12-18T16:39:35;79.68;;;27.75;;
45944;SDS011;31655;48.972;10.686;2022-12-18T16:42:03;77.05;;;28.35;;
45944;SDS011;31655;48.972;10.686;2022-12-18T16:44:30;82.28;;;29.83;;
45944;SDS011;31655;48.972;10.686;2022-12-18T16:46:56;71.47;;;25.77;;
45944;SDS011;31655;48.972;10.686;2022-12-18T16:49:27;72.90;;;29.73;;
45944;SDS011;31655;48.972;10.686;2022-12-18T16:51:53;75.32;;;28.27;;
45944;SDS011;31655;48.972;10.686;2022-12-18T16:54:19;69.10;;;27.65;;
45944;SDS011;31655;48.972;10.686;2022-12-18T16:56:45;74.28;;;28.15;;
45944;SDS011;31655;48.972;10.686;2022-12-18T16:59:13;74.38;;;28.73;;
45944;SDS011;31655;48.972;10.686;2022-12-18T17:01:40;71.28;;;29.00;;
45944;SDS011;31655;48.972;10.686;2022-12-18T17:04:06;70.82;;;26.40;;
45944;SDS011;31655;48.972;10.686;2022-12-18T17:06:34;71.50;;;31.05;;
45944;SDS011;31655;48.972;10.686;2022-12-18T17:09:04;78.10;;;29.77;;
45944;SDS011;31655;48.972;10.686;2022-12-18T17:11:32;149.93;;;50.78;;
45944;SDS011;31655;48.972;10.686;2022-12-18T17:13:58;90.15;;;31.55;;
45944;SDS011;31655;48.972;10.686;2022-12-18T17:16:24;153.07;;;47.15;;
45944;SDS011;31655;48.972;10.686;2022-12-18T17:18:54;128.13;;;45.67;;
45944;SDS011;31655;48.972;10.686;2022-12-18T17:21:20;102.05;;;37.83;;
45944;SDS011;31655;48.972;10.686;2022-12-18T17:23:45;119.47;;;40.55;;
45944;SDS011;31655;48.972;10.686;2022-12-18T17:26:12;203.18;;;64.70;;
45944;SDS011;31655;48.972;10.686;2022-12-18T17:28:38;123.88;;;46.13;;
45944;SDS011;31655;48.972;10.686;2022-12-18T17:31:12;93.07;;;38.08;;
45944;SDS011;31655;48.972;10.686;2022-12-18T17:33:48;88.28;;;34.65;;
45944;SDS011;31655;48.972;10.686;2022-12-18T17:36:14;82.18;;;32.03;;
45944;SDS011;31655;48.972;10.686;2022-12-18T17:38:49;71.85;;;28.42;;
45944;SDS011;31655;48.972;10.686;2022-12-18T17:41:16;90.55;;;32.75;;
45944;SDS011;31655;48.972;10.686;2022-12-18T17:43:42;99.53;;;38.33;;
45944;SDS011;31655;48.972;10.686;2022-12-18T17:46:10;78.15;;;29.92;;
45944;SDS011;31655;48.972;10.686;2022-12-18T17:48:37;86.85;;;32.22;;
45944;SDS011;31655;48.972;10.686;2022-12-18T17:51:03;82.35;;;30.42;;
45944;SDS011;31655;48.972;10.686;2022-12-18T17:53:31;78.72;;;29.25;;
45944;SDS011;31655;48.972;10.686;2022-12-18T17:55:57;77.15;;;30.10;;
45944;SDS011;31655;48.972;10.686;2022-12-18T17:58:30;73.47;;;30.73;;
45944;SDS011;31655;48.972;10.686;2022-12-18T18:00:57;78.60;;;30.15;;
45944;SDS011;31655;48.972;10.686;2022-12-18T18:03:23;82.20;;;31.02;;
45944;SDS011;31655;48.972;10.686;2022-12-18T18:05:53;87.15;;;33.20;;
45944;SDS011;31655;48.972;10.686;2022-12-18T18:08:23;87.82;;;32.40;;
45944;SDS011;31655;48.972;10.686;2022-12-18T18:10:49;90.15;;;32.50;;
45944;SDS011;31655;48.972;10.686;2022-12-18T18:13:22;90.97;;;31.88;;
45944;SDS011;31655;48.972;10.686;2022-12-18T18:16:09;99.93;;;34.28;;
45944;SDS011;31655;48.972;10.686;2022-12-18T18:18:36;72.22;;;28.08;;
45944;SDS011;31655;48.972;10.686;2022-12-18T18:21:06;102.00;;;36.20;;
45944;SDS011;31655;48.972;10.686;2022-12-18T18:23:32;89.70;;;32.88;;
45944;SDS011;31655;48.972;10.686;2022-12-18T18:26:06;81.45;;;31.23;;
45944;SDS011;31655;48.972;10.686;2022-12-18T18:28:33;88.15;;;32.83;;
45944;SDS011;31655;48.972;10.686;2022-12-18T18:31:09;81.97;;;30.90;;
45944;SDS011;31655;48.972;10.686;2022-12-18T18:33:35;88.65;;;30.77;;
45944;SDS011;31655;48.972;10.686;2022-12-18T18:36:01;90.90;;;33.92;;
45944;SDS011;31655;48.972;10.686;2022-12-18T18:38:27;93.43;;;29.48;;